createdAt,value
2018-11-06T00:02:07.358Z,98708.00
2018-11-06T00:04:42.599Z,98709.00
2018-11-06T00:07:12.660Z,98712.00
2018-11-06T00:09:43.764Z,98710.00
2018-11-06T00:12:14.209Z,98709.00
2018-11-06T00:14:47.016Z,98691.00
2018-11-06T00:17:17.252Z,98692.00
2018-11-06T00:19:48.030Z,98680.00
2018-11-06T00:22:17.950Z,98683.00
2018-11-06T00:24:48.166Z,98671.00
2018-11-06T00:27:18.664Z,98673.00
2018-11-06T00:29:49.862Z,98685.00
2018-11-06T00:32:20.561Z,98683.00
2018-11-06T00:34:50.614Z,98670.00
2018-11-06T00:37:20.612Z,98679.00
2018-11-06T00:39:51.084Z,98668.00
2018-11-06T00:42:22.353Z,98676.00
2018-11-06T00:44:53.065Z,98678.00
2018-11-06T00:47:23.834Z,98673.00
2018-11-06T00:49:53.897Z,98663.00
2018-11-06T00:52:24.442Z,98674.00
2018-11-06T00:54:55.191Z,98670.00
2018-11-06T00:57:25.589Z,98669.00
2018-11-06T00:59:57.853Z,98672.00
2018-11-06T01:02:28.538Z,98667.00
2018-11-06T01:05:00.025Z,98669.00
2018-11-06T01:07:30.047Z,98665.00
2018-11-06T01:10:01.445Z,98655.00
2018-11-06T01:12:31.897Z,98653.00
2018-11-06T01:15:02.251Z,98649.00
2018-11-06T01:17:33.014Z,98658.00
2018-11-06T01:20:05.075Z,98647.00
2018-11-06T01:22:36.403Z,98646.00
2018-11-06T01:25:08.091Z,98646.00
2018-11-06T01:27:38.588Z,98651.00
2018-11-06T01:30:15.800Z,98642.00
2018-11-06T01:32:47.357Z,98644.00
2018-11-06T01:35:18.531Z,98635.00
2018-11-06T01:37:48.766Z,98642.00
2018-11-06T01:40:21.778Z,98628.00
2018-11-06T01:42:52.617Z,98619.00
2018-11-06T01:45:23.848Z,98624.00
2018-11-06T01:47:54.825Z,98627.00
2018-11-06T01:50:25.705Z,98630.00
2018-11-06T01:52:56.996Z,98636.00
2018-11-06T01:55:27.087Z,98619.00
2018-11-06T01:57:57.087Z,98621.00
2018-11-06T02:00:29.034Z,98617.00
2018-11-06T02:02:59.201Z,98627.00
2018-11-06T02:05:29.499Z,98635.00
2018-11-06T02:07:59.832Z,98634.00
2018-11-06T02:10:30.977Z,98635.00
2018-11-06T02:13:01.160Z,98627.00
2018-11-06T02:15:31.725Z,98624.00
2018-11-06T02:18:01.658Z,98615.00
2018-11-06T02:20:32.740Z,98623.00
2018-11-06T02:23:03.565Z,98617.00
2018-11-06T02:25:34.328Z,98620.00
2018-11-06T02:28:06.920Z,98613.00
2018-11-06T02:30:37.396Z,98613.00
2018-11-06T02:33:07.914Z,98618.00
2018-11-06T02:35:38.444Z,98614.00
2018-11-06T02:38:08.837Z,98601.00
2018-11-06T02:40:39.700Z,98594.00
2018-11-06T02:43:09.731Z,98595.00
2018-11-06T02:45:40.253Z,98589.00
2018-11-06T02:48:12.984Z,98587.00
2018-11-06T02:50:44.036Z,98582.00
2018-11-06T02:53:14.140Z,98589.00
2018-11-06T02:55:45.404Z,98584.00
2018-11-06T02:58:15.798Z,98573.00
2018-11-06T03:00:46.078Z,98578.00
2018-11-06T03:03:16.391Z,98573.00
2018-11-06T03:05:46.515Z,98573.00
2018-11-06T03:08:18.729Z,98576.00
2018-11-06T03:10:50.689Z,98567.00
2018-11-06T03:13:20.926Z,98549.00
2018-11-06T03:15:52.353Z,98530.00
2018-11-06T03:18:22.589Z,98540.00
2018-11-06T03:20:52.710Z,98528.00
2018-11-06T03:23:23.090Z,98543.00
2018-11-06T03:25:54.016Z,98537.00
2018-11-06T03:28:24.105Z,98547.00
2018-11-06T03:30:54.874Z,98563.00
2018-11-06T03:33:27.087Z,98554.00
2018-11-06T03:35:57.641Z,98545.00
2018-11-06T03:38:27.971Z,98557.00
2018-11-06T03:40:58.609Z,98557.00
2018-11-06T03:43:32.029Z,98549.00
2018-11-06T03:46:04.493Z,98545.00
2018-11-06T03:48:37.832Z,98551.00
2018-11-06T03:51:08.810Z,98550.00
2018-11-06T03:53:39.271Z,98552.00
2018-11-06T03:56:10.043Z,98554.00
2018-11-06T03:58:40.151Z,98545.00
2018-11-06T04:01:10.877Z,98539.00
2018-11-06T04:03:40.920Z,98538.00
2018-11-06T04:06:11.147Z,98528.00
2018-11-06T04:08:41.204Z,98534.00
2018-11-06T04:11:11.304Z,98537.00
2018-11-06T04:13:41.476Z,98536.00
2018-11-06T04:16:11.930Z,98544.00
2018-11-06T04:18:41.932Z,98535.00
2018-11-06T04:21:12.446Z,98546.00
2018-11-06T04:23:43.464Z,98542.00
2018-11-06T04:26:14.184Z,98534.00
2018-11-06T04:28:44.255Z,98529.00
2018-11-06T04:31:14.981Z,98518.00
2018-11-06T04:33:45.021Z,98517.00
2018-11-06T04:36:15.048Z,98525.00
2018-11-06T04:38:45.239Z,98512.00
2018-11-06T04:41:16.337Z,98521.00
2018-11-06T04:43:46.844Z,98522.00
2018-11-06T04:46:17.142Z,98524.00
2018-11-06T04:48:47.944Z,98528.00
2018-11-06T04:51:18.778Z,98523.00
2018-11-06T04:53:50.153Z,98528.00
2018-11-06T04:56:21.101Z,98524.00
2018-11-06T04:58:51.260Z,98529.00
2018-11-06T05:01:22.792Z,98525.00
2018-11-06T05:03:52.931Z,98527.00
2018-11-06T05:06:23.366Z,98514.00
2018-11-06T05:08:53.660Z,98516.00
2018-11-06T05:11:24.027Z,98506.00
2018-11-06T05:13:54.117Z,98515.00
2018-11-06T05:16:24.428Z,98521.00
2018-11-06T05:18:54.598Z,98512.00
2018-11-06T05:21:24.546Z,98506.00
2018-11-06T05:23:54.996Z,98510.00
2018-11-06T05:26:25.321Z,98514.00
2018-11-06T05:28:55.621Z,98509.00
2018-11-06T05:31:25.767Z,98515.00
2018-11-06T05:33:56.293Z,98518.00
2018-11-06T05:36:26.395Z,98517.00
2018-11-06T05:38:56.354Z,98516.00
2018-11-06T05:41:26.553Z,98516.00
2018-11-06T05:43:57.140Z,98509.00
2018-11-06T05:46:27.275Z,98514.00
2018-11-06T05:48:58.673Z,98512.00
2018-11-06T05:51:29.999Z,98512.00
2018-11-06T05:54:01.055Z,98517.00
2018-11-06T05:56:31.295Z,98507.00
2018-11-06T05:59:01.327Z,98500.00
2018-11-06T06:01:32.134Z,98490.00
2018-11-06T06:04:02.345Z,98501.00
2018-11-06T06:06:32.447Z,98499.00
2018-11-06T06:09:03.232Z,98498.00
2018-11-06T06:11:33.402Z,98494.00
2018-11-06T06:14:03.716Z,98497.00
2018-11-06T06:16:33.858Z,98486.00
2018-11-06T06:19:04.029Z,98490.00
2018-11-06T06:21:34.868Z,98485.00
2018-11-06T06:24:04.989Z,98479.00
2018-11-06T06:26:35.598Z,98489.00
2018-11-06T06:29:06.397Z,98497.00
2018-11-06T06:31:36.554Z,98491.00
2018-11-06T06:34:06.900Z,98495.00
2018-11-06T06:36:37.081Z,98494.00
2018-11-06T06:39:11.067Z,98490.00
2018-11-06T06:41:41.133Z,98493.00
2018-11-06T06:44:11.711Z,98492.00
2018-11-06T06:46:42.301Z,98487.00
2018-11-06T06:49:12.449Z,98497.00
2018-11-06T06:51:43.592Z,98496.00
2018-11-06T06:54:14.633Z,98501.00
2018-11-06T06:56:44.666Z,98500.00
2018-11-06T06:59:15.354Z,98510.00
2018-11-06T07:01:45.314Z,98517.00
2018-11-06T07:04:18.311Z,98506.00
2018-11-06T07:06:49.404Z,98507.00
2018-11-06T07:09:21.312Z,98509.00
2018-11-06T07:11:51.745Z,98511.00
2018-11-06T07:14:21.836Z,98506.00
2018-11-06T07:16:51.946Z,98512.00
2018-11-06T07:19:24.283Z,98510.00
2018-11-06T07:21:54.468Z,98511.00
2018-11-06T07:24:25.176Z,98508.00
2018-11-06T07:26:56.483Z,98512.00
2018-11-06T07:29:27.100Z,98514.00
2018-11-06T07:31:57.313Z,98513.00
2018-11-06T07:34:27.555Z,98513.00
2018-11-06T07:36:58.741Z,98507.00
2018-11-06T07:39:29.823Z,98513.00
2018-11-06T07:42:00.115Z,98508.00
2018-11-06T07:44:30.252Z,98500.00
2018-11-06T07:47:03.169Z,98513.00
2018-11-06T07:49:33.744Z,98516.00
2018-11-06T07:52:06.533Z,98517.00
2018-11-06T07:54:38.539Z,98506.00
2018-11-06T07:57:08.519Z,98505.00
2018-11-06T07:59:39.312Z,98507.00
2018-11-06T08:02:09.859Z,98508.00
2018-11-06T08:04:40.033Z,98500.00
2018-11-06T08:07:10.909Z,98503.00
2018-11-06T08:09:41.107Z,98497.00
2018-11-06T08:12:13.432Z,98503.00
2018-11-06T08:14:44.487Z,98499.00
2018-11-06T08:17:14.430Z,98502.00
2018-11-06T08:19:44.345Z,98494.00
2018-11-06T08:22:14.344Z,98503.00
2018-11-06T08:24:44.738Z,98506.00
2018-11-06T08:27:14.875Z,98499.00
2018-11-06T08:29:45.176Z,98502.00
2018-11-06T08:32:16.746Z,98494.00
2018-11-06T08:34:46.891Z,98507.00
2018-11-06T08:37:16.907Z,98501.00
2018-11-06T08:39:47.064Z,98508.00
2018-11-06T08:42:17.411Z,98504.00
2018-11-06T08:44:47.638Z,98500.00
2018-11-06T08:47:17.806Z,98495.00
2018-11-06T08:49:47.899Z,98509.00
2018-11-06T08:52:17.986Z,98498.00
2018-11-06T08:54:48.208Z,98497.00
2018-11-06T08:57:18.276Z,98485.00
2018-11-06T08:59:48.262Z,98484.00
2018-11-06T09:02:18.485Z,98487.00
2018-11-06T09:04:48.664Z,98487.00
2018-11-06T09:07:18.828Z,98482.00
2018-11-06T09:09:49.130Z,98474.00
2018-11-06T09:12:20.075Z,98471.00
2018-11-06T09:14:50.596Z,98476.00
2018-11-06T09:17:20.817Z,98468.00
2018-11-06T09:19:50.882Z,98469.00
2018-11-06T09:22:20.838Z,98473.00
2018-11-06T09:24:51.108Z,98476.00
2018-11-06T09:27:21.280Z,98477.00
2018-11-06T09:29:51.747Z,98472.00
2018-11-06T09:32:21.714Z,98475.00
2018-11-06T09:34:51.941Z,98484.00
2018-11-06T09:37:22.294Z,98484.00
2018-11-06T09:39:52.783Z,98477.00
2018-11-06T09:42:23.075Z,98475.00
2018-11-06T09:44:53.268Z,98475.00
2018-11-06T09:47:24.748Z,98478.00
2018-11-06T09:49:55.236Z,98472.00
2018-11-06T09:52:25.767Z,98470.00
2018-11-06T09:54:56.268Z,98468.00
2018-11-06T09:57:26.399Z,98462.00
2018-11-06T09:59:56.511Z,98457.00
2018-11-06T10:02:26.570Z,98459.00
2018-11-06T10:04:56.768Z,98454.00
2018-11-06T10:07:27.239Z,98463.00
2018-11-06T10:09:57.441Z,98450.00
2018-11-06T10:12:27.790Z,98452.00
2018-11-06T10:14:58.534Z,98448.00
2018-11-06T10:17:28.715Z,98452.00
2018-11-06T10:19:58.803Z,98450.00
2018-11-06T10:22:29.068Z,98455.00
2018-11-06T10:24:59.798Z,98453.00
2018-11-06T10:27:31.511Z,98461.00
2018-11-06T10:30:01.693Z,98468.00
2018-11-06T10:32:31.649Z,98450.00
2018-11-06T10:35:02.170Z,98442.00
2018-11-06T10:37:33.961Z,98448.00
2018-11-06T10:40:07.333Z,98439.00
2018-11-06T10:42:38.229Z,98439.00
2018-11-06T10:45:09.024Z,98434.00
2018-11-06T10:47:40.636Z,98432.00
2018-11-06T10:50:12.487Z,98442.00
2018-11-06T10:52:44.025Z,98431.00
2018-11-06T10:55:14.127Z,98415.00
2018-11-06T10:57:47.535Z,98426.00
2018-11-06T11:00:22.663Z,98411.00
2018-11-06T11:02:58.139Z,98406.00
2018-11-06T11:05:30.524Z,98414.00
2018-11-06T11:08:01.523Z,98413.00
2018-11-06T11:10:31.945Z,98411.00
2018-11-06T11:13:02.197Z,98423.00
2018-11-06T11:15:32.272Z,98428.00
2018-11-06T11:18:02.991Z,98422.00
2018-11-06T11:20:34.815Z,98420.00
2018-11-06T11:23:05.432Z,98413.00
2018-11-06T11:25:35.759Z,98409.00
2018-11-06T11:28:06.117Z,98408.00
2018-11-06T11:30:36.983Z,98403.00
2018-11-06T11:33:07.858Z,98380.00
2018-11-06T11:35:38.096Z,98369.00
2018-11-06T11:38:08.251Z,98363.00
2018-11-06T11:40:38.358Z,98367.00
2018-11-06T11:43:08.515Z,98368.00
2018-11-06T11:45:38.761Z,98371.00
2018-11-06T11:48:08.856Z,98379.00
2018-11-06T11:50:39.125Z,98356.00
2018-11-06T11:53:09.560Z,98362.00
2018-11-06T11:55:40.154Z,98360.00
2018-11-06T11:58:10.384Z,98364.00
2018-11-06T12:00:40.889Z,98352.00
2018-11-06T12:03:11.724Z,98357.00
2018-11-06T12:05:42.945Z,98361.00
2018-11-06T12:08:13.462Z,98364.00
2018-11-06T12:10:44.164Z,98363.00
2018-11-06T12:13:14.451Z,98370.00
2018-11-06T12:15:45.525Z,98369.00
2018-11-06T12:18:16.199Z,98368.00
2018-11-06T12:20:46.802Z,98370.00
2018-11-06T12:23:16.894Z,98362.00
2018-11-06T12:25:47.888Z,98359.00
2018-11-06T12:28:17.554Z,98364.00
2018-11-06T12:30:47.750Z,98359.00
2018-11-06T12:33:17.793Z,98357.00
2018-11-06T12:35:48.007Z,98356.00
2018-11-06T12:38:18.211Z,98350.00
2018-11-06T12:40:49.263Z,98345.00
2018-11-06T12:43:19.293Z,98348.00
2018-11-06T12:45:49.766Z,98342.00
2018-11-06T12:48:20.182Z,98330.00
2018-11-06T12:50:50.750Z,98338.00
2018-11-06T12:53:20.998Z,98335.00
2018-11-06T12:55:51.240Z,98333.00
2018-11-06T12:58:21.177Z,98316.00
2018-11-06T13:00:51.388Z,98317.00
2018-11-06T13:03:21.375Z,98300.00
2018-11-06T13:05:51.611Z,98299.00
2018-11-06T13:08:21.713Z,98295.00
2018-11-06T13:10:52.545Z,98271.00
2018-11-06T13:13:23.148Z,98291.00
2018-11-06T13:15:53.533Z,98273.00
2018-11-06T13:18:23.489Z,98278.00
2018-11-06T13:20:53.430Z,98284.00
2018-11-06T13:23:23.437Z,98273.00
2018-11-06T13:25:53.766Z,98263.00
2018-11-06T13:28:24.644Z,98252.00
2018-11-06T13:30:54.782Z,98265.00
2018-11-06T13:33:24.921Z,98261.00
2018-11-06T13:35:55.110Z,98255.00
2018-11-06T13:38:25.588Z,98261.00
2018-11-06T13:40:55.625Z,98260.00
2018-11-06T13:43:25.811Z,98264.00
2018-11-06T13:45:56.108Z,98268.00
2018-11-06T13:48:26.304Z,98257.00
2018-11-06T13:50:56.695Z,98254.00
2018-11-06T13:53:26.781Z,98239.00
2018-11-06T13:55:56.972Z,98252.00
2018-11-06T13:58:27.100Z,98246.00
2018-11-06T14:00:57.395Z,98226.00
2018-11-06T14:03:27.821Z,98239.00
2018-11-06T14:05:57.910Z,98230.00
2018-11-06T14:08:28.402Z,98234.00
2018-11-06T14:10:58.707Z,98236.00
2018-11-06T14:13:28.784Z,98238.00
2018-11-06T14:15:59.348Z,98239.00
2018-11-06T14:18:29.587Z,98241.00
2018-11-06T14:21:00.926Z,98240.00
2018-11-06T14:23:31.260Z,98233.00
2018-11-06T14:26:01.846Z,98234.00
2018-11-06T14:28:32.007Z,98233.00
2018-11-06T14:31:02.184Z,98230.00
2018-11-06T14:33:32.784Z,98234.00
2018-11-06T14:36:03.040Z,98248.00
2018-11-06T14:38:33.068Z,98243.00
2018-11-06T14:41:03.368Z,98250.00
2018-11-06T14:43:33.673Z,98251.00
2018-11-06T14:46:10.605Z,98257.00
2018-11-06T14:48:40.959Z,98251.00
2018-11-06T14:51:10.996Z,98256.00
2018-11-06T14:53:41.337Z,98264.00
2018-11-06T14:56:12.584Z,98254.00
2018-11-06T14:58:42.976Z,98243.00
2018-11-06T15:01:13.188Z,98250.00
2018-11-06T15:03:44.801Z,98263.00
2018-11-06T15:06:16.421Z,98265.00
2018-11-06T15:08:47.817Z,98257.00
2018-11-06T15:11:19.011Z,98253.00
2018-11-06T15:13:50.239Z,98254.00
2018-11-06T15:16:20.996Z,98254.00
2018-11-06T15:18:52.044Z,98265.00
2018-11-06T15:21:22.443Z,98265.00
2018-11-06T15:23:53.475Z,98240.00
2018-11-06T15:26:24.153Z,98268.00
2018-11-06T15:28:54.147Z,98238.00
2018-11-06T15:31:27.414Z,98232.00
2018-11-06T15:33:58.348Z,98219.00
2018-11-06T15:36:28.758Z,98230.00
2018-11-06T15:38:59.070Z,98222.00
2018-11-06T15:41:29.646Z,98215.00
2018-11-06T15:44:00.043Z,98197.00
2018-11-06T15:46:30.830Z,98201.00
2018-11-06T15:49:02.759Z,98207.00
2018-11-06T15:51:34.870Z,98206.00
2018-11-06T15:54:07.534Z,98211.00
2018-11-06T15:56:39.895Z,98221.00
2018-11-06T15:59:12.604Z,98227.00
2018-11-06T16:01:44.715Z,98231.00
2018-11-06T16:04:15.079Z,98229.00
2018-11-06T16:06:47.132Z,98234.00
2018-11-06T16:09:20.893Z,98236.00
2018-11-06T16:11:51.768Z,98224.00
2018-11-06T16:14:23.178Z,98231.00
2018-11-06T16:16:53.402Z,98228.00
2018-11-06T16:19:23.568Z,98231.00
2018-11-06T16:21:54.068Z,98234.00
2018-11-06T16:24:24.331Z,98244.00
2018-11-06T16:26:54.594Z,98244.00
2018-11-06T16:29:24.656Z,98240.00
2018-11-06T16:31:54.669Z,98236.00
2018-11-06T16:34:26.227Z,98248.00
2018-11-06T16:36:56.817Z,98239.00
2018-11-06T16:39:26.912Z,98238.00
2018-11-06T16:41:57.613Z,98242.00
2018-11-06T16:44:27.902Z,98242.00
2018-11-06T16:46:58.278Z,98233.00
2018-11-06T16:49:28.962Z,98224.00
2018-11-06T16:51:59.221Z,98220.00
2018-11-06T16:54:32.289Z,98218.00
2018-11-06T16:57:03.084Z,98231.00
2018-11-06T16:59:33.447Z,98231.00
2018-11-06T17:02:03.432Z,98235.00
2018-11-06T17:04:33.826Z,98225.00
2018-11-06T17:07:04.235Z,98227.00
2018-11-06T17:09:34.967Z,98223.00
2018-11-06T17:12:05.281Z,98212.00
2018-11-06T17:14:35.405Z,98218.00
2018-11-06T17:17:05.900Z,98219.00
2018-11-06T17:19:36.005Z,98219.00
2018-11-06T17:22:06.216Z,98217.00
2018-11-06T17:24:36.388Z,98214.00
2018-11-06T17:27:06.924Z,98220.00
2018-11-06T17:29:37.111Z,98233.00
2018-11-06T17:32:07.521Z,98224.00
2018-11-06T17:34:38.001Z,98230.00
2018-11-06T17:37:08.298Z,98224.00
2018-11-06T17:39:38.532Z,98217.00
2018-11-06T17:42:08.547Z,98228.00
2018-11-06T17:44:38.677Z,98236.00
2018-11-06T17:47:09.028Z,98230.00
2018-11-06T17:49:46.033Z,98229.00
2018-11-06T17:52:16.337Z,98220.00
2018-11-06T17:54:46.444Z,98234.00
2018-11-06T17:57:18.784Z,98232.00
2018-11-06T17:59:48.912Z,98238.00
2018-11-06T18:02:18.899Z,98232.00
2018-11-06T18:04:49.508Z,98229.00
2018-11-06T18:07:20.227Z,98231.00
2018-11-06T18:09:50.737Z,98222.00
2018-11-06T18:12:21.149Z,98233.00
2018-11-06T18:14:51.175Z,98223.00
2018-11-06T18:17:21.438Z,98229.00
2018-11-06T18:19:51.778Z,98225.00
2018-11-06T18:22:21.805Z,98220.00
2018-11-06T18:24:52.485Z,98213.00
2018-11-06T18:27:22.868Z,98215.00
2018-11-06T18:29:52.959Z,98211.00
2018-11-06T18:32:23.371Z,98215.00
2018-11-06T18:34:53.690Z,98224.00
2018-11-06T18:37:24.058Z,98224.00
2018-11-06T18:39:54.385Z,98238.00
2018-11-06T18:42:24.525Z,98229.00
2018-11-06T18:44:54.592Z,98234.00
2018-11-06T18:47:24.633Z,98238.00
2018-11-06T18:49:54.678Z,98239.00
2018-11-06T18:52:26.305Z,98246.00
2018-11-06T18:54:56.384Z,98248.00
2018-11-06T18:57:26.443Z,98232.00
2018-11-06T18:59:56.938Z,98237.00
2018-11-06T19:02:27.070Z,98239.00
2018-11-06T19:04:57.194Z,98249.00
2018-11-06T19:07:27.536Z,98239.00
2018-11-06T19:09:57.654Z,98227.00
2018-11-06T19:12:28.745Z,98220.00
2018-11-06T19:14:59.968Z,98219.00
2018-11-06T19:17:31.798Z,98212.00
2018-11-06T19:20:02.316Z,98205.00
2018-11-06T19:22:32.590Z,98198.00
2018-11-06T19:25:02.803Z,98182.00
2018-11-06T19:27:32.943Z,98193.00
2018-11-06T19:30:03.327Z,98190.00
2018-11-06T19:32:33.489Z,98198.00
2018-11-06T19:35:03.899Z,98198.00
2018-11-06T19:37:34.140Z,98204.00
2018-11-06T19:40:04.834Z,98200.00
2018-11-06T19:42:36.136Z,98214.00
2018-11-06T19:45:07.297Z,98196.00
2018-11-06T19:47:40.888Z,98202.00
2018-11-06T19:50:16.085Z,98201.00
2018-11-06T19:52:46.201Z,98203.00
2018-11-06T19:55:17.922Z,98196.00
2018-11-06T19:57:48.232Z,98182.00
2018-11-06T20:00:23.679Z,98189.00
2018-11-06T20:02:54.939Z,98186.00
2018-11-06T20:05:25.161Z,98198.00
2018-11-06T20:07:55.175Z,98200.00
2018-11-06T20:10:26.040Z,98216.00
2018-11-06T20:13:02.957Z,98202.00
2018-11-06T20:15:35.405Z,98199.00
2018-11-06T20:18:08.496Z,98197.00
2018-11-06T20:20:39.960Z,98199.00
2018-11-06T20:23:10.337Z,98189.00
2018-11-06T20:25:40.639Z,98190.00
2018-11-06T20:28:10.927Z,98180.00
2018-11-06T20:30:41.024Z,98172.00
2018-11-06T20:33:11.567Z,98165.00
2018-11-06T20:35:41.888Z,98170.00
2018-11-06T20:38:11.948Z,98181.00
2018-11-06T20:40:42.526Z,98166.00
2018-11-06T20:43:12.788Z,98166.00
2018-11-06T20:45:44.037Z,98166.00
2018-11-06T20:48:14.660Z,98173.00
2018-11-06T20:50:44.941Z,98181.00
2018-11-06T20:53:14.958Z,98178.00
2018-11-06T20:55:52.761Z,98179.00
2018-11-06T20:58:22.744Z,98180.00
2018-11-06T21:00:53.789Z,98185.00
2018-11-06T21:03:24.149Z,98177.00
2018-11-06T21:05:55.310Z,98179.00
2018-11-06T21:08:25.828Z,98176.00
2018-11-06T21:10:56.383Z,98172.00
2018-11-06T21:13:27.040Z,98171.00
2018-11-06T21:15:56.993Z,98176.00
2018-11-06T21:18:27.311Z,98181.00
2018-11-06T21:20:58.589Z,98176.00
2018-11-06T21:23:28.574Z,98179.00
2018-11-06T21:25:59.075Z,98193.00
2018-11-06T21:28:29.017Z,98181.00
2018-11-06T21:30:59.010Z,98196.00
2018-11-06T21:33:29.547Z,98191.00
2018-11-06T21:35:59.690Z,98187.00
2018-11-06T21:38:30.105Z,98195.00
2018-11-06T21:41:00.894Z,98190.00
2018-11-06T21:43:30.928Z,98192.00
2018-11-06T21:46:01.268Z,98180.00
2018-11-06T21:48:31.868Z,98180.00
2018-11-06T21:51:01.956Z,98183.00
2018-11-06T21:53:32.275Z,98189.00
2018-11-06T21:56:03.257Z,98186.00
2018-11-06T21:58:33.347Z,98187.00
2018-11-06T22:01:03.431Z,98179.00
2018-11-06T22:03:33.673Z,98157.00
2018-11-06T22:06:03.636Z,98149.00
2018-11-06T22:08:33.862Z,98146.00
2018-11-06T22:11:04.180Z,98142.00
2018-11-06T22:13:34.278Z,98152.00
2018-11-06T22:16:05.471Z,98151.00
2018-11-06T22:18:35.993Z,98155.00
2018-11-06T22:21:06.315Z,98169.00
2018-11-06T22:23:36.327Z,98159.00
2018-11-06T22:26:06.572Z,98157.00
2018-11-06T22:28:39.422Z,98156.00
2018-11-06T22:31:09.611Z,98163.00
2018-11-06T22:33:39.767Z,98165.00
2018-11-06T22:36:10.288Z,98153.00
2018-11-06T22:38:40.726Z,98141.00
2018-11-06T22:41:10.777Z,98152.00
2018-11-06T22:43:40.822Z,98161.00
2018-11-06T22:46:11.124Z,98148.00
2018-11-06T22:48:41.778Z,98146.00
2018-11-06T22:58:18.968Z,98136.00
2018-11-06T23:00:54.167Z,98125.00
2018-11-06T23:03:24.209Z,98129.00
2018-11-06T23:05:54.290Z,98126.00
2018-11-06T23:08:24.543Z,98126.00
2018-11-06T23:10:54.835Z,98117.00
2018-11-06T23:13:27.160Z,98114.00
2018-11-06T23:15:58.192Z,98106.00
2018-11-06T23:18:28.386Z,98106.00
2018-11-06T23:21:00.862Z,98112.00
2018-11-06T23:23:30.931Z,98111.00
2018-11-06T23:26:01.335Z,98127.00
2018-11-06T23:28:31.669Z,98112.00
2018-11-06T23:31:01.734Z,98110.00
2018-11-06T23:33:32.401Z,98122.00
2018-11-06T23:36:02.726Z,98121.00
2018-11-06T23:38:34.734Z,98112.00
2018-11-06T23:41:05.874Z,98118.00
2018-11-06T23:43:36.161Z,98111.00
2018-11-06T23:46:06.955Z,98116.00
2018-11-06T23:48:37.464Z,98120.00
2018-11-06T23:51:07.637Z,98113.00
2018-11-06T23:53:38.231Z,98134.00
2018-11-06T23:56:08.279Z,98117.00
2018-11-06T23:58:38.374Z,98120.00
